Time,TemperatureF,DewpointF,PressureIn,WindDirection,WindDirectionDegrees,WindSpeedMPH,WindSpeedGustMPH,Humidity,HourlyPrecipIn,Conditions,Clouds,dailyrainin,SoftwareType,DateUTC
2013-09-06 00:01:00,57.2,46.3,30.25,NW,315,1.6,2.2,67,0.00,,,0.00,pywws,2013-09-06 04:01:00,
2013-09-06 00:02:00,57.2,46.3,30.25,NNW,338,0.7,1.6,67,0.00,,,0.00,pywws,2013-09-06 04:02:00,
2013-09-06 00:03:00,57.2,46.7,30.25,NW,315,0.7,1.6,68,0.00,,,0.00,pywws,2013-09-06 04:03:00,
2013-09-06 00:05:00,57.2,46.7,30.25,North,0,1.6,3.1,68,0.00,,,0.00,pywws,2013-09-06 04:05:00,
2013-09-06 00:08:00,57.2,46.7,30.26,North,0,2.2,3.8,68,0.00,,,0.00,pywws,2013-09-06 04:08:00,
2013-09-06 00:11:00,57.2,46.7,30.26,NNW,338,1.6,3.1,68,0.00,,,0.00,pywws,2013-09-06 04:11:00,
2013-09-06 00:17:00,57.2,46.7,30.26,North,0,3.1,4.5,68,0.00,,,0.00,pywws,2013-09-06 04:17:00,
2013-09-06 00:22:00,57.4,46.9,30.26,NW,315,2.2,3.1,68,0.00,,,0.00,pywws,2013-09-06 04:22:00,
2013-09-06 00:28:00,57.6,47.1,30.26,NW,315,6.9,9.2,68,0.00,,,0.00,pywws,2013-09-06 04:28:00,
2013-09-06 00:34:00,57.6,47.1,30.26,North,0,3.8,4.5,68,0.00,,,0.00,pywws,2013-09-06 04:34:00,
2013-09-06 00:39:00,57.6,47.1,30.26,North,0,2.2,3.8,68,0.00,,,0.00,pywws,2013-09-06 04:39:00,
2013-09-06 00:45:00,57.6,47.1,30.27,WNW,292,0.7,2.2,68,0.00,,,0.00,pywws,2013-09-06 04:45:00,
2013-09-06 00:50:00,57.6,47.1,30.27,WNW,292,0.7,2.2,68,0.00,,,0.00,pywws,2013-09-06 04:50:00,
2013-09-06 00:56:00,57.4,46.9,30.27,NNW,338,3.8,5.4,68,0.00,,,0.00,pywws,2013-09-06 04:56:00,
2013-09-06 01:02:00,57.2,46.7,30.27,NW,315,4.5,6.9,68,0.00,,,0.00,pywws,2013-09-06 05:02:00,
2013-09-06 01:07:00,57.2,46.7,30.27,North,0,3.8,7.6,68,0.00,,,0.00,pywws,2013-09-06 05:07:00,
2013-09-06 01:13:00,57.2,46.7,30.27,SW,225,2.2,4.5,68,0.00,,,0.00,pywws,2013-09-06 05:13:00,
2013-09-06 01:18:00,57.0,46.9,30.27,NW,315,3.8,6.0,69,0.00,,,0.00,pywws,2013-09-06 05:18:00,
2013-09-06 01:24:00,56.8,46.8,30.27,East,90,1.6,3.1,69,0.00,,,0.00,pywws,2013-09-06 05:24:00,
2013-09-06 01:30:00,56.7,46.6,30.27,North,0,0.7,1.6,69,0.00,,,0.00,pywws,2013-09-06 05:30:00,
2013-09-06 01:35:00,56.5,46.4,30.27,East,90,0.0,0.7,69,0.00,,,0.00,pywws,2013-09-06 05:35:00,
2013-09-06 01:42:00,56.1,46.5,30.27,North,0,0.0,0.7,70,0.00,,,0.00,pywws,2013-09-06 05:42:00,
2013-09-06 01:47:00,55.9,46.3,30.28,East,90,0.0,0.0,70,0.00,,,0.00,pywws,2013-09-06 05:47:00,
2013-09-06 01:53:00,55.6,46.0,30.27,NW,315,0.0,0.7,70,0.00,,,0.00,pywws,2013-09-06 05:53:00,
2013-09-06 01:58:00,55.4,46.2,30.28,SW,225,0.7,1.6,71,0.00,,,0.00,pywws,2013-09-06 05:58:00,
2013-09-06 02:04:00,55.2,46.4,30.29,SW,225,0.7,1.6,72,0.00,,,0.00,pywws,2013-09-06 06:04:00,
2013-09-06 02:10:00,54.9,46.0,30.28,West,270,0.7,1.6,72,0.00,,,0.00,pywws,2013-09-06 06:10:00,
2013-09-06 02:15:00,54.7,45.8,30.28,NW,315,1.6,3.1,72,0.00,,,0.00,pywws,2013-09-06 06:15:00,
2013-09-06 02:21:00,54.5,46.0,30.28,NW,315,1.6,2.2,73,0.00,,,0.00,pywws,2013-09-06 06:21:00,
2013-09-06 02:26:00,54.5,46.0,30.28,WNW,292,1.6,2.2,73,0.00,,,0.00,pywws,2013-09-06 06:26:00,
2013-09-06 02:32:00,54.3,45.9,30.28,North,0,4.5,5.4,73,0.00,,,0.00,pywws,2013-09-06 06:32:00,
2013-09-06 02:38:00,54.1,45.7,30.28,NW,315,3.8,5.4,73,0.00,,,0.00,pywws,2013-09-06 06:38:00,
2013-09-06 02:43:00,54.1,45.7,30.28,NW,315,3.8,6.0,73,0.00,,,0.00,pywws,2013-09-06 06:43:00,
2013-09-06 02:49:00,54.1,45.7,30.28,North,0,2.2,3.8,73,0.00,,,0.00,pywws,2013-09-06 06:49:00,
2013-09-06 02:54:00,54.1,45.3,30.28,North,0,3.1,4.5,72,0.00,,,0.00,pywws,2013-09-06 06:54:00,
2013-09-06 03:00:00,54.0,45.1,30.28,North,0,2.2,3.8,72,0.00,,,0.00,pywws,2013-09-06 07:00:00,
2013-09-06 03:06:00,54.0,45.1,30.28,NW,315,0.7,2.2,72,0.00,,,0.00,pywws,2013-09-06 07:06:00,
2013-09-06 03:11:00,53.8,45.0,30.28,East,90,0.0,0.7,72,0.00,,,0.00,pywws,2013-09-06 07:11:00,
2013-09-06 03:17:00,53.6,44.8,30.28,NW,315,3.1,4.5,72,0.00,,,0.00,pywws,2013-09-06 07:17:00,
2013-09-06 03:22:00,53.6,44.8,30.28,North,0,1.6,2.2,72,0.00,,,0.00,pywws,2013-09-06 07:22:00,
2013-09-06 03:28:00,53.6,44.8,30.29,North,0,2.2,3.8,72,0.00,,,0.00,pywws,2013-09-06 07:28:00,
2013-09-06 03:34:00,53.4,45.0,30.28,NW,315,2.2,3.8,73,0.00,,,0.00,pywws,2013-09-06 07:34:00,
2013-09-06 03:39:00,53.2,44.8,30.29,North,0,2.2,3.8,73,0.00,,,0.00,pywws,2013-09-06 07:39:00,
2013-09-06 03:45:00,53.1,44.6,30.29,NE,45,0.7,1.6,73,0.00,,,0.00,pywws,2013-09-06 07:45:00,
2013-09-06 03:50:00,52.9,44.5,30.29,North,0,0.7,1.6,73,0.00,,,0.00,pywws,2013-09-06 07:50:00,
2013-09-06 03:57:00,52.7,44.3,30.29,North,0,1.6,3.1,73,0.00,,,0.00,pywws,2013-09-06 07:57:00,
2013-09-06 04:02:00,52.7,44.3,30.29,North,0,2.2,3.1,73,0.00,,,0.00,pywws,2013-09-06 08:02:00,
2013-09-06 04:08:00,52.7,44.3,30.29,North,0,2.2,3.8,73,0.00,,,0.00,pywws,2013-09-06 08:08:00,
2013-09-06 04:14:00,52.7,44.3,30.28,North,0,1.6,2.2,73,0.00,,,0.00,pywws,2013-09-06 08:14:00,
2013-09-06 04:19:00,52.5,43.8,30.28,North,0,0.7,1.6,72,0.00,,,0.00,pywws,2013-09-06 08:19:00,
2013-09-06 04:25:00,52.5,43.8,30.28,North,0,1.6,2.2,72,0.00,,,0.00,pywws,2013-09-06 08:25:00,
2013-09-06 04:30:00,52.5,43.8,30.29,North,0,2.2,3.8,72,0.00,,,0.00,pywws,2013-09-06 08:30:00,
2013-09-06 04:36:00,52.5,43.8,30.29,North,0,0.7,3.1,72,0.00,,,0.00,pywws,2013-09-06 08:36:00,
2013-09-06 04:42:00,52.5,43.8,30.29,North,0,1.6,3.1,72,0.00,,,0.00,pywws,2013-09-06 08:42:00,
2013-09-06 04:47:00,52.5,43.8,30.29,NW,315,1.6,2.2,72,0.00,,,0.00,pywws,2013-09-06 08:47:00,
2013-09-06 04:53:00,52.3,43.6,30.29,North,0,1.6,2.2,72,0.00,,,0.00,pywws,2013-09-06 08:53:00,
2013-09-06 04:58:00,52.3,43.6,30.29,NW,315,0.7,1.6,72,0.00,,,0.00,pywws,2013-09-06 08:58:00,
2013-09-06 05:04:00,52.2,43.4,30.30,NW,315,0.7,1.6,72,0.00,,,0.00,pywws,2013-09-06 09:04:00,
2013-09-06 05:10:00,52.0,43.2,30.30,North,0,0.0,0.0,72,0.00,,,0.00,pywws,2013-09-06 09:10:00,
2013-09-06 05:15:00,52.0,43.2,30.30,SE,135,0.7,1.6,72,0.00,,,0.00,pywws,2013-09-06 09:15:00,
2013-09-06 05:21:00,51.6,43.3,30.31,North,0,0.0,0.7,73,0.00,,,0.00,pywws,2013-09-06 09:21:00,
2013-09-06 05:26:00,51.4,43.4,30.31,North,0,0.0,0.7,74,0.00,,,0.00,pywws,2013-09-06 09:26:00,
2013-09-06 05:32:00,51.1,43.1,30.31,NW,315,0.0,1.6,74,0.00,,,0.00,pywws,2013-09-06 09:32:00,
2013-09-06 05:38:00,50.9,43.3,30.31,NW,315,1.6,2.2,75,0.00,,,0.00,pywws,2013-09-06 09:38:00,
2013-09-06 05:43:00,50.7,43.1,30.31,NW,315,0.7,2.2,75,0.00,,,0.00,pywws,2013-09-06 09:43:00,
2013-09-06 05:49:00,50.7,43.1,30.31,West,270,2.2,3.1,75,0.00,,,0.00,pywws,2013-09-06 09:49:00,
2013-09-06 05:54:00,50.5,42.9,30.31,NW,315,2.2,3.8,75,0.00,,,0.00,pywws,2013-09-06 09:54:00,
2013-09-06 06:00:00,50.7,43.1,30.31,North,0,2.2,3.1,75,0.00,,,0.00,pywws,2013-09-06 10:00:00,
2013-09-06 06:06:00,50.7,43.1,30.31,NE,45,0.7,2.2,75,0.00,,,0.00,pywws,2013-09-06 10:06:00,
2013-09-06 06:12:00,50.9,43.3,30.31,North,0,3.1,4.5,75,0.00,,,0.00,pywws,2013-09-06 10:12:00,
2013-09-06 06:18:00,51.1,43.4,30.32,NE,45,0.7,2.2,75,0.00,,,0.00,pywws,2013-09-06 10:18:00,
2013-09-06 06:23:00,51.3,43.6,30.32,NW,315,1.6,3.8,75,0.00,,,0.00,pywws,2013-09-06 10:23:00,
2013-09-06 06:29:00,51.4,43.4,30.32,North,0,1.6,2.2,74,0.00,,,0.00,pywws,2013-09-06 10:29:00,
2013-09-06 06:34:00,51.4,43.4,30.32,North,0,2.2,4.5,74,0.00,,,0.00,pywws,2013-09-06 10:34:00,
2013-09-06 06:40:00,51.6,43.6,30.32,NW,315,2.2,3.8,74,0.00,,,0.00,pywws,2013-09-06 10:40:00,
2013-09-06 06:46:00,51.8,43.4,30.32,North,0,2.2,3.1,73,0.00,,,0.00,pywws,2013-09-06 10:46:00,
2013-09-06 06:51:00,52.0,43.6,30.32,NNW,338,3.1,5.4,73,0.00,,,0.00,pywws,2013-09-06 10:51:00,
2013-09-06 06:57:00,52.0,43.6,30.32,North,0,3.1,4.5,73,0.00,,,0.00,pywws,2013-09-06 10:57:00,
2013-09-06 07:02:00,52.2,43.8,30.33,North,0,3.8,5.4,73,0.00,,,0.00,pywws,2013-09-06 11:02:00,
2013-09-06 07:08:00,52.3,43.6,30.33,North,0,2.2,3.8,72,0.00,,,0.00,pywws,2013-09-06 11:08:00,
2013-09-06 07:14:00,52.5,43.8,30.33,NW,315,1.6,2.2,72,0.00,,,0.00,pywws,2013-09-06 11:14:00,
2013-09-06 07:19:00,52.7,43.9,30.33,North,0,1.6,3.1,72,0.00,,,0.00,pywws,2013-09-06 11:19:00,
2013-09-06 07:25:00,52.7,43.9,30.34,North,0,1.6,2.2,72,0.00,,,0.00,pywws,2013-09-06 11:25:00,
2013-09-06 07:30:00,52.9,44.1,30.34,North,0,1.6,3.8,72,0.00,,,0.00,pywws,2013-09-06 11:30:00,
2013-09-06 07:36:00,53.1,44.3,30.34,NW,315,3.8,4.5,72,0.00,,,0.00,pywws,2013-09-06 11:36:00,
2013-09-06 07:42:00,53.2,44.4,30.34,North,0,0.0,1.6,72,0.00,,,0.00,pywws,2013-09-06 11:42:00,
2013-09-06 07:48:00,53.6,44.4,30.34,NNE,22,1.6,3.1,71,0.00,,,0.00,pywws,2013-09-06 11:48:00,
2013-09-06 07:54:00,54.0,44.8,30.34,NE,45,0.7,1.6,71,0.00,,,0.00,pywws,2013-09-06 11:54:00,
2013-09-06 07:59:00,54.7,45.5,30.34,ESE,112,0.7,1.6,71,0.00,,,0.00,pywws,2013-09-06 11:59:00,
2013-09-06 08:05:00,55.4,45.4,30.34,NW,315,0.7,1.6,69,0.00,,,0.00,pywws,2013-09-06 12:05:00,
2013-09-06 08:10:00,56.5,46.0,30.34,North,0,1.6,2.2,68,0.00,,,0.00,pywws,2013-09-06 12:10:00,
2013-09-06 08:16:00,57.2,46.3,30.34,NE,45,0.7,1.6,67,0.00,,,0.00,pywws,2013-09-06 12:16:00,
2013-09-06 08:22:00,58.1,46.8,30.34,North,0,2.2,3.8,66,0.00,,,0.00,pywws,2013-09-06 12:22:00,
2013-09-06 08:27:00,58.6,46.5,30.34,ESE,112,3.1,5.4,64,0.00,,,0.00,pywws,2013-09-06 12:27:00,
2013-09-06 08:33:00,59.2,46.6,30.35,NE,45,3.8,6.9,63,0.00,,,0.00,pywws,2013-09-06 12:33:00,
2013-09-06 08:38:00,59.5,46.9,30.35,North,0,3.8,6.9,63,0.00,,,0.00,pywws,2013-09-06 12:38:00,
2013-09-06 08:44:00,59.9,46.8,30.35,East,90,3.8,5.4,62,0.00,,,0.00,pywws,2013-09-06 12:44:00,
2013-09-06 08:50:00,60.3,47.2,30.35,North,0,3.1,4.5,62,0.00,,,0.00,pywws,2013-09-06 12:50:00,
2013-09-06 08:55:00,60.8,47.3,30.35,NW,315,2.2,4.5,61,0.00,,,0.00,pywws,2013-09-06 12:55:00,
2013-09-06 09:01:00,61.7,48.5,30.35,North,0,1.6,3.1,62,0.00,,,0.00,pywws,2013-09-06 13:01:00,
2013-09-06 09:06:00,62.1,48.0,30.35,North,0,0.7,1.6,60,0.00,,,0.00,pywws,2013-09-06 13:06:00,
2013-09-06 09:12:00,62.2,47.7,30.35,NW,315,0.7,2.2,59,0.00,,,0.00,pywws,2013-09-06 13:12:00,
2013-09-06 09:18:00,62.1,47.6,30.35,NE,45,0.7,2.2,59,0.00,,,0.00,pywws,2013-09-06 13:18:00,
2013-09-06 09:23:00,61.9,46.9,30.35,North,0,1.6,3.1,58,0.00,,,0.00,pywws,2013-09-06 13:23:00,
2013-09-06 09:29:00,61.9,46.9,30.35,North,0,2.2,4.5,58,0.00,,,0.00,pywws,2013-09-06 13:29:00,
2013-09-06 09:34:00,61.7,46.3,30.35,ESE,112,1.6,3.1,57,0.00,,,0.00,pywws,2013-09-06 13:34:00,
2013-09-06 09:40:00,61.3,45.5,30.35,East,90,1.6,2.2,56,0.00,,,0.00,pywws,2013-09-06 13:40:00,
2013-09-06 09:46:00,61.3,46.0,30.35,North,0,2.2,5.4,57,0.00,,,0.00,pywws,2013-09-06 13:46:00,
2013-09-06 09:52:00,62.2,46.8,30.35,NE,45,0.7,2.2,57,0.00,,,0.00,pywws,2013-09-06 13:52:00,
2013-09-06 09:58:00,63.3,47.4,30.35,North,0,0.7,2.2,56,0.00,,,0.00,pywws,2013-09-06 13:58:00,
2013-09-06 10:03:00,64.6,48.0,30.35,NW,315,5.4,7.6,55,0.00,,,0.00,pywws,2013-09-06 14:03:00,
2013-09-06 10:09:00,64.9,47.9,30.35,North,0,2.2,4.5,54,0.00,,,0.00,pywws,2013-09-06 14:09:00,
2013-09-06 10:14:00,64.9,47.4,30.35,East,90,1.6,3.1,53,0.00,,,0.00,pywws,2013-09-06 14:14:00,
2013-09-06 10:20:00,65.7,48.6,30.35,NE,45,3.1,3.8,54,0.00,,,0.00,pywws,2013-09-06 14:20:00,
2013-09-06 10:26:00,67.5,48.7,30.35,North,0,3.8,5.4,51,0.00,,,0.00,pywws,2013-09-06 14:26:00,
2013-09-06 10:32:00,67.5,48.2,30.35,NE,45,3.1,3.8,50,0.00,,,0.00,pywws,2013-09-06 14:32:00,
2013-09-06 10:38:00,67.3,46.9,30.35,NNW,338,3.8,6.0,48,0.00,,,0.00,pywws,2013-09-06 14:38:00,
2013-09-06 10:43:00,66.6,45.7,30.35,NNW,338,2.2,4.5,47,0.00,,,0.00,pywws,2013-09-06 14:43:00,
2013-09-06 10:49:00,65.8,46.1,30.35,WSW,248,2.2,10.7,49,99.99,,,99.99,pywws,2013-09-06 14:49:00,
2013-09-06 10:54:00,65.8,46.7,30.35,East,90,1.6,3.8,50,0.00,,,0.00,pywws,2013-09-06 14:54:00,
2013-09-06 11:01:00,67.1,46.2,30.35,North,0,3.1,4.5,47,0.00,,,0.00,pywws,2013-09-06 15:01:00,
2013-09-06 11:06:00,67.1,46.7,30.35,NE,45,0.7,1.6,48,0.00,,,0.00,pywws,2013-09-06 15:06:00,
2013-09-06 11:12:00,67.1,46.7,30.35,NE,45,0.7,1.6,48,0.00,,,0.00,pywws,2013-09-06 15:12:00,
2013-09-06 11:18:00,68.0,44.7,30.35,East,90,0.7,1.6,43,0.00,,,0.00,pywws,2013-09-06 15:18:00,
2013-09-06 11:23:00,68.0,45.3,30.35,NNW,338,2.2,6.0,44,0.00,,,0.00,pywws,2013-09-06 15:23:00,
2013-09-06 11:30:00,67.5,44.2,30.35,NW,315,3.8,6.9,43,0.00,,,0.00,pywws,2013-09-06 15:30:00,
2013-09-06 11:37:00,66.6,43.4,30.36,North,0,2.2,3.8,43,0.00,,,0.00,pywws,2013-09-06 15:37:00,
2013-09-06 11:42:00,67.5,45.9,30.35,East,90,1.6,3.1,46,0.00,,,0.00,pywws,2013-09-06 15:42:00,
2013-09-06 11:48:00,68.4,45.6,30.35,East,90,3.8,5.4,44,0.00,,,0.00,pywws,2013-09-06 15:48:00,
2013-09-06 11:54:00,69.1,46.8,30.35,East,90,3.1,3.8,45,0.00,,,0.00,pywws,2013-09-06 15:54:00,
2013-09-06 11:59:00,70.0,47.1,30.35,SE,135,1.6,2.2,44,0.00,,,0.00,pywws,2013-09-06 15:59:00,
2013-09-06 12:05:00,70.2,44.7,30.35,SSE,158,0.7,2.2,40,0.00,,,0.00,pywws,2013-09-06 16:05:00,
2013-09-06 12:10:00,69.8,45.7,30.34,West,270,3.1,5.4,42,0.00,,,0.00,pywws,2013-09-06 16:10:00,
2013-09-06 12:16:00,69.1,45.6,30.34,SSW,202,0.7,1.6,43,0.00,,,0.00,pywws,2013-09-06 16:16:00,
2013-09-06 12:22:00,68.4,44.4,30.34,West,270,0.7,1.6,42,0.00,,,0.00,pywws,2013-09-06 16:22:00,
2013-09-06 12:27:00,68.2,44.8,30.34,West,270,1.6,3.1,43,0.00,,,0.00,pywws,2013-09-06 16:27:00,
2013-09-06 12:33:00,68.2,45.4,30.34,West,270,2.2,3.8,44,0.00,,,0.00,pywws,2013-09-06 16:33:00,
2013-09-06 12:38:00,68.9,46.7,30.34,NW,315,0.0,1.6,45,0.00,,,0.00,pywws,2013-09-06 16:38:00,
2013-09-06 12:44:00,69.6,46.7,30.33,NNW,338,3.1,5.4,44,0.00,,,0.00,pywws,2013-09-06 16:44:00,
2013-09-06 12:50:00,69.6,47.3,30.33,West,270,6.0,9.8,45,0.00,,,0.00,pywws,2013-09-06 16:50:00,
2013-09-06 12:55:00,69.8,46.3,30.33,NE,45,1.6,3.1,43,0.00,,,0.00,pywws,2013-09-06 16:55:00,
2013-09-06 13:01:00,70.3,45.5,30.33,North,0,1.6,3.1,41,0.00,,,0.00,pywws,2013-09-06 17:01:00,
2013-09-06 13:06:00,70.5,46.3,30.32,North,0,2.2,5.4,42,0.00,,,0.00,pywws,2013-09-06 17:06:00,
2013-09-06 13:12:00,70.5,46.9,30.33,NE,45,4.5,6.9,43,0.00,,,0.00,pywws,2013-09-06 17:12:00,
2013-09-06 13:18:00,70.9,46.0,30.33,SE,135,2.2,3.1,41,0.00,,,0.00,pywws,2013-09-06 17:18:00,
2013-09-06 13:23:00,70.9,46.0,30.32,NNW,338,1.6,2.2,41,0.00,,,0.00,pywws,2013-09-06 17:23:00,
2013-09-06 13:29:00,70.7,44.5,30.32,SW,225,4.5,7.6,39,0.00,,,0.00,pywws,2013-09-06 17:29:00,
2013-09-06 13:34:00,70.7,43.8,30.32,NW,315,3.8,5.4,38,0.00,,,0.00,pywws,2013-09-06 17:34:00,
2013-09-06 13:40:00,70.3,44.9,30.32,North,0,2.2,3.8,40,0.00,,,0.00,pywws,2013-09-06 17:40:00,
2013-09-06 13:46:00,70.3,44.9,30.32,NW,315,1.6,3.1,40,0.00,,,0.00,pywws,2013-09-06 17:46:00,
2013-09-06 13:51:00,70.5,45.0,30.32,West,270,6.0,9.2,40,0.00,,,0.00,pywws,2013-09-06 17:51:00,
2013-09-06 13:57:00,70.3,44.2,30.32,East,90,0.7,2.2,39,0.00,,,0.00,pywws,2013-09-06 17:57:00,
2013-09-06 14:02:00,70.5,46.3,30.31,South,180,2.2,3.8,42,0.00,,,0.00,pywws,2013-09-06 18:02:00,
2013-09-06 14:08:00,70.7,45.8,30.31,NE,45,1.6,2.2,41,0.00,,,0.00,pywws,2013-09-06 18:08:00,
2013-09-06 14:14:00,70.5,43.7,30.31,NW,315,4.5,6.9,38,0.00,,,0.00,pywws,2013-09-06 18:14:00,
2013-09-06 14:19:00,70.2,44.0,30.30,South,180,0.0,0.7,39,0.00,,,0.00,pywws,2013-09-06 18:19:00,
2013-09-06 14:25:00,70.0,45.2,30.30,West,270,4.5,6.9,41,0.00,,,0.00,pywws,2013-09-06 18:25:00,
2013-09-06 14:30:00,70.5,45.0,30.30,NW,315,5.4,9.2,40,0.00,,,0.00,pywws,2013-09-06 18:30:00,
2013-09-06 14:36:00,70.5,45.0,30.30,NW,315,4.5,6.9,40,0.00,,,0.00,pywws,2013-09-06 18:36:00,
2013-09-06 14:42:00,70.5,44.4,30.30,WSW,248,3.8,4.5,39,0.00,,,0.00,pywws,2013-09-06 18:42:00,
2013-09-06 14:47:00,70.3,44.2,30.29,NNW,338,1.6,3.1,39,0.00,,,0.00,pywws,2013-09-06 18:47:00,
2013-09-06 14:53:00,70.5,46.3,30.29,East,90,1.6,3.1,42,0.00,,,0.00,pywws,2013-09-06 18:53:00,
2013-09-06 14:58:00,70.3,44.2,30.28,NE,45,0.7,1.6,39,0.00,,,0.00,pywws,2013-09-06 18:58:00,
2013-09-06 15:04:00,70.3,45.5,30.28,West,270,1.6,3.8,41,0.00,,,0.00,pywws,2013-09-06 19:04:00,
2013-09-06 15:10:00,70.5,44.4,30.28,North,0,3.8,4.5,39,0.00,,,0.00,pywws,2013-09-06 19:10:00,
2013-09-06 15:15:00,70.7,45.8,30.28,NE,45,2.2,3.8,41,0.00,,,0.00,pywws,2013-09-06 19:15:00,
2013-09-06 15:21:00,70.9,45.3,30.27,North,0,3.8,7.6,40,0.00,,,0.00,pywws,2013-09-06 19:21:00,
2013-09-06 15:26:00,71.1,46.8,30.27,NE,45,4.5,6.0,42,0.00,,,0.00,pywws,2013-09-06 19:26:00,
2013-09-06 15:32:00,71.4,45.8,30.27,SE,135,0.7,1.6,40,0.00,,,0.00,pywws,2013-09-06 19:32:00,
2013-09-06 15:38:00,71.4,45.8,30.27,SSE,158,0.0,0.7,40,0.00,,,0.00,pywws,2013-09-06 19:38:00,
2013-09-06 15:43:00,71.4,45.8,30.27,NW,315,0.7,3.1,40,0.00,,,0.00,pywws,2013-09-06 19:43:00,
2013-09-06 15:49:00,71.4,45.2,30.27,North,0,0.7,1.6,39,0.00,,,0.00,pywws,2013-09-06 19:49:00,
2013-09-06 15:54:00,71.2,44.3,30.26,West,270,1.6,2.2,38,0.00,,,0.00,pywws,2013-09-06 19:54:00,
2013-09-06 16:00:00,71.2,44.3,30.26,NW,315,5.4,7.6,38,0.00,,,0.00,pywws,2013-09-06 20:00:00,
2013-09-06 16:06:00,71.2,44.3,30.26,NW,315,4.5,6.0,38,0.00,,,0.00,pywws,2013-09-06 20:06:00,
2013-09-06 16:11:00,70.9,43.3,30.25,West,270,0.7,1.6,37,0.00,,,0.00,pywws,2013-09-06 20:11:00,
2013-09-06 16:17:00,70.7,44.5,30.25,North,0,6.9,9.8,39,0.00,,,0.00,pywws,2013-09-06 20:17:00,
2013-09-06 16:22:00,70.9,44.7,30.25,NW,315,2.2,3.1,39,0.00,,,0.00,pywws,2013-09-06 20:22:00,
2013-09-06 16:28:00,71.2,44.3,30.25,NW,315,5.4,8.3,38,0.00,,,0.00,pywws,2013-09-06 20:28:00,
2013-09-06 16:34:00,71.2,44.3,30.25,SW,225,1.6,2.2,38,0.00,,,0.00,pywws,2013-09-06 20:34:00,
2013-09-06 16:39:00,71.2,45.0,30.25,NW,315,6.0,8.3,39,0.00,,,0.00,pywws,2013-09-06 20:39:00,
2013-09-06 16:45:00,71.2,44.3,30.25,East,90,1.6,3.1,38,0.00,,,0.00,pywws,2013-09-06 20:45:00,
2013-09-06 16:50:00,71.1,44.2,30.25,NE,45,0.7,1.6,38,0.00,,,0.00,pywws,2013-09-06 20:50:00,
2013-09-06 16:56:00,70.7,45.2,30.25,North,0,2.2,3.1,40,0.00,,,0.00,pywws,2013-09-06 20:56:00,
2013-09-06 17:02:00,70.9,44.7,30.25,West,270,1.6,3.1,39,0.00,,,0.00,pywws,2013-09-06 21:02:00,
2013-09-06 17:07:00,71.1,44.8,30.25,SW,225,0.7,2.2,39,0.00,,,0.00,pywws,2013-09-06 21:07:00,
2013-09-06 17:13:00,71.1,44.2,30.25,NW,315,2.2,3.8,38,0.00,,,0.00,pywws,2013-09-06 21:13:00,
2013-09-06 17:18:00,71.1,44.8,30.25,NNW,338,5.4,6.9,39,0.00,,,0.00,pywws,2013-09-06 21:18:00,
2013-09-06 17:24:00,71.1,44.2,30.25,East,90,0.7,1.6,38,0.00,,,0.00,pywws,2013-09-06 21:24:00,
2013-09-06 17:30:00,71.1,43.5,30.24,WNW,292,1.6,3.1,37,0.00,,,0.00,pywws,2013-09-06 21:30:00,
2013-09-06 17:35:00,71.1,43.5,30.24,SE,135,0.0,1.6,37,0.00,,,0.00,pywws,2013-09-06 21:35:00,
2013-09-06 17:41:00,70.9,44.0,30.24,NW,315,4.5,5.4,38,0.00,,,0.00,pywws,2013-09-06 21:41:00,
2013-09-06 17:46:00,70.9,44.0,30.25,NW,315,3.1,6.0,38,0.00,,,0.00,pywws,2013-09-06 21:46:00,
2013-09-06 17:52:00,71.1,44.2,30.25,NE,45,2.2,3.8,38,0.00,,,0.00,pywws,2013-09-06 21:52:00,
2013-09-06 17:58:00,71.1,44.8,30.25,NW,315,2.2,3.1,39,0.00,,,0.00,pywws,2013-09-06 21:58:00,
2013-09-06 18:03:00,70.9,44.0,30.25,WSW,248,3.1,5.4,38,0.00,,,0.00,pywws,2013-09-06 22:03:00,
2013-09-06 18:09:00,70.7,43.1,30.25,NNE,22,1.6,2.2,37,0.00,,,0.00,pywws,2013-09-06 22:09:00,
2013-09-06 18:14:00,70.5,43.7,30.25,North,0,1.6,4.5,38,0.00,,,0.00,pywws,2013-09-06 22:14:00,
2013-09-06 18:20:00,70.5,43.7,30.25,WNW,292,3.1,5.4,38,0.00,,,0.00,pywws,2013-09-06 22:20:00,
2013-09-06 18:26:00,70.2,43.4,30.25,NW,315,1.6,2.2,38,0.00,,,0.00,pywws,2013-09-06 22:26:00,
2013-09-06 18:31:00,69.8,43.7,30.24,NW,315,2.2,4.5,39,0.00,,,0.00,pywws,2013-09-06 22:31:00,
2013-09-06 18:37:00,69.4,44.1,30.24,NE,45,0.7,1.6,40,0.00,,,0.00,pywws,2013-09-06 22:37:00,
2013-09-06 18:42:00,69.1,43.7,30.24,NE,45,0.0,0.7,40,0.00,,,0.00,pywws,2013-09-06 22:42:00,
2013-09-06 18:48:00,68.7,44.7,30.25,NW,315,1.6,3.1,42,0.00,,,0.00,pywws,2013-09-06 22:48:00,
2013-09-06 18:54:00,68.4,45.0,30.24,North,0,2.2,3.8,43,0.00,,,0.00,pywws,2013-09-06 22:54:00,
2013-09-06 18:59:00,68.2,44.8,30.24,NE,45,0.0,0.7,43,0.00,,,0.00,pywws,2013-09-06 22:59:00,
2013-09-06 19:05:00,67.8,45.1,30.24,North,0,0.0,0.7,44,0.00,,,0.00,pywws,2013-09-06 23:05:00,
2013-09-06 19:10:00,67.5,44.8,30.25,NW,315,2.2,3.1,44,0.00,,,0.00,pywws,2013-09-06 23:10:00,
2013-09-06 19:16:00,67.3,45.2,30.25,NNE,22,1.6,2.2,45,0.00,,,0.00,pywws,2013-09-06 23:16:00,
2013-09-06 19:22:00,66.9,44.9,30.25,North,0,1.6,2.2,45,0.00,,,0.00,pywws,2013-09-06 23:22:00,
2013-09-06 19:27:00,66.6,45.1,30.25,NNW,338,2.2,3.8,46,0.00,,,0.00,pywws,2013-09-06 23:27:00,
2013-09-06 19:33:00,66.4,45.0,30.25,North,0,1.6,3.1,46,0.00,,,0.00,pywws,2013-09-06 23:33:00,
2013-09-06 19:38:00,66.0,45.2,30.25,NNE,22,0.7,2.2,47,0.00,,,0.00,pywws,2013-09-06 23:38:00,
2013-09-06 19:44:00,65.7,45.4,30.25,NE,45,0.7,1.6,48,0.00,,,0.00,pywws,2013-09-06 23:44:00,
2013-09-06 19:50:00,65.3,45.1,30.25,East,90,0.0,0.7,48,0.00,,,0.00,pywws,2013-09-06 23:50:00,
2013-09-06 19:55:00,64.9,44.8,30.25,North,0,1.6,3.1,48,0.00,,,0.00,pywws,2013-09-06 23:55:00,
2013-09-06 20:01:00,64.6,45.0,30.25,NNE,22,0.0,0.7,49,0.00,,,0.00,pywws,2013-09-07 00:01:00,
2013-09-06 20:06:00,64.2,45.2,30.24,East,90,0.0,0.0,50,0.00,,,0.00,pywws,2013-09-07 00:06:00,
2013-09-06 20:12:00,63.9,45.4,30.25,East,90,0.0,0.0,51,0.00,,,0.00,pywws,2013-09-07 00:12:00,
2013-09-06 20:18:00,63.3,44.9,30.25,East,90,0.0,0.0,51,0.00,,,0.00,pywws,2013-09-07 00:18:00,
2013-09-06 20:23:00,63.0,44.5,30.25,East,90,0.0,0.0,51,0.00,,,0.00,pywws,2013-09-07 00:23:00,
2013-09-06 20:29:00,62.6,44.2,30.25,East,90,0.0,0.0,51,0.00,,,0.00,pywws,2013-09-07 00:29:00,
2013-09-06 20:34:00,62.4,45.1,30.25,East,90,0.0,0.0,53,0.00,,,0.00,pywws,2013-09-07 00:34:00,
2013-09-06 20:40:00,62.1,44.7,30.26,South,180,0.0,0.7,53,0.00,,,0.00,pywws,2013-09-07 00:40:00,
2013-09-06 20:46:00,61.9,44.6,30.25,South,180,0.0,0.0,53,0.00,,,0.00,pywws,2013-09-07 00:46:00,
2013-09-06 20:52:00,61.7,44.9,30.25,North,-999,0.0,0.7,54,0.00,,,0.00,pywws,2013-09-07 00:52:00,
2013-09-06 20:58:00,61.5,44.7,30.25,South,180,0.0,0.0,54,0.00,,,0.00,pywws,2013-09-07 00:58:00,
2013-09-06 21:03:00,61.5,45.2,30.25,South,180,0.0,0.0,55,0.00,,,0.00,pywws,2013-09-07 01:03:00,
2013-09-06 21:09:00,61.3,45.5,30.25,South,180,0.0,0.0,56,0.00,,,0.00,pywws,2013-09-07 01:09:00,
2013-09-06 21:14:00,61.2,45.3,30.25,South,180,0.0,0.0,56,0.00,,,0.00,pywws,2013-09-07 01:14:00,
2013-09-06 21:20:00,61.0,45.2,30.24,South,180,0.0,0.0,56,0.00,,,0.00,pywws,2013-09-07 01:20:00,
2013-09-06 21:26:00,60.6,45.8,30.24,South,180,0.0,0.0,58,0.00,,,0.00,pywws,2013-09-07 01:26:00,
2013-09-06 21:31:00,60.4,45.6,30.24,East,90,0.0,0.7,58,0.00,,,0.00,pywws,2013-09-07 01:31:00,
2013-09-06 21:37:00,60.3,45.9,30.24,East,90,0.0,0.0,59,0.00,,,0.00,pywws,2013-09-07 01:37:00,
2013-09-06 21:42:00,60.1,46.1,30.24,East,90,0.0,0.0,60,0.00,,,0.00,pywws,2013-09-07 01:42:00,
2013-09-06 21:48:00,59.7,45.8,30.24,SE,135,0.7,1.6,60,0.00,,,0.00,pywws,2013-09-07 01:48:00,
2013-09-06 21:54:00,59.5,46.1,30.24,SE,135,0.0,0.0,61,0.00,,,0.00,pywws,2013-09-07 01:54:00,
2013-09-06 22:00:00,59.2,46.2,30.24,SE,135,0.0,0.0,62,0.00,,,0.00,pywws,2013-09-07 02:00:00,
2013-09-06 22:06:00,59.0,46.0,30.24,SE,135,0.0,0.0,62,0.00,,,0.00,pywws,2013-09-07 02:06:00,
2013-09-06 22:12:00,58.8,46.3,30.24,SE,135,0.0,0.0,63,0.00,,,0.00,pywws,2013-09-07 02:12:00,
2013-09-06 22:18:00,58.6,46.5,30.24,SE,135,0.0,0.0,64,0.00,,,0.00,pywws,2013-09-07 02:18:00,
2013-09-06 22:24:00,58.5,46.3,30.24,NW,315,0.0,1.6,64,0.00,,,0.00,pywws,2013-09-07 02:24:00,
2013-09-06 22:30:00,57.9,45.8,30.24,NW,315,0.0,0.7,64,0.00,,,0.00,pywws,2013-09-07 02:30:00,
2013-09-06 22:35:00,57.7,46.1,30.24,NW,315,1.6,2.2,65,0.00,,,0.00,pywws,2013-09-07 02:35:00,
2013-09-06 22:41:00,57.6,45.9,30.24,NW,315,1.6,2.2,65,0.00,,,0.00,pywws,2013-09-07 02:41:00,
2013-09-06 22:46:00,57.2,45.5,30.24,NW,315,0.7,1.6,65,0.00,,,0.00,pywws,2013-09-07 02:46:00,
2013-09-06 22:52:00,57.0,46.2,30.24,SW,225,0.7,2.2,67,0.00,,,0.00,pywws,2013-09-07 02:52:00,
2013-09-06 22:58:00,57.0,46.2,30.24,NW,315,0.0,0.0,67,0.00,,,0.00,pywws,2013-09-07 02:58:00,
2013-09-06 23:03:00,56.8,46.4,30.24,NW,315,0.0,0.0,68,0.00,,,0.00,pywws,2013-09-07 03:03:00,
2013-09-06 23:09:00,56.5,46.0,30.24,West,270,0.7,0.7,68,0.00,,,0.00,pywws,2013-09-07 03:09:00,
2013-09-06 23:14:00,56.3,46.3,30.24,NW,315,0.0,0.0,69,0.00,,,0.00,pywws,2013-09-07 03:14:00,
2013-09-06 23:20:00,55.9,46.3,30.24,North,0,0.0,1.6,70,0.00,,,0.00,pywws,2013-09-07 03:20:00,
2013-09-06 23:26:00,55.6,46.0,30.24,North,0,0.7,2.2,70,0.00,,,0.00,pywws,2013-09-07 03:26:00,
2013-09-06 23:31:00,55.4,46.2,30.24,NW,315,0.7,1.6,71,0.00,,,0.00,pywws,2013-09-07 03:31:00,
2013-09-06 23:37:00,55.2,46.4,30.24,NW,315,0.7,0.7,72,0.00,,,0.00,pywws,2013-09-07 03:37:00,
2013-09-06 23:42:00,55.2,46.4,30.23,NW,315,0.0,0.7,72,0.00,,,0.00,pywws,2013-09-07 03:42:00,
2013-09-06 23:48:00,55.0,46.2,30.23,NW,315,0.0,1.6,72,0.00,,,0.00,pywws,2013-09-07 03:48:00,
2013-09-06 23:54:00,55.0,46.5,30.23,North,0,0.0,0.7,73,0.00,,,0.00,pywws,2013-09-07 03:54:00,
2013-09-06 23:59:00,54.9,46.4,30.23,NNW,338,0.7,1.6,73,0.00,,,0.00,pywws,2013-09-07 03:59:00,